sensor_id;sensor_type;location;lat;lon;timestamp;temperature;humidity
67354;SHT30;54238;52.278;21.056;2024-03-02T00:01:12;9.33;71.41
67354;SHT30;54238;52.278;21.056;2024-03-02T00:03:46;9.31;71.44
67354;SHT30;54238;52.278;21.056;2024-03-02T00:06:13;9.31;71.44
67354;SHT30;54238;52.278;21.056;2024-03-02T00:08:48;9.31;71.48
67354;SHT30;54238;52.278;21.056;2024-03-02T00:11:17;9.28;71.49
67354;SHT30;54238;52.278;21.056;2024-03-02T00:13:49;9.26;71.55
67354;SHT30;54238;52.278;21.056;2024-03-02T00:16:20;9.22;71.63
67354;SHT30;54238;52.278;21.056;2024-03-02T00:18:50;9.20;71.70
67354;SHT30;54238;52.278;21.056;2024-03-02T00:21:20;9.17;71.72
67354;SHT30;54238;52.278;21.056;2024-03-02T00:23:51;9.14;71.82
67354;SHT30;54238;52.278;21.056;2024-03-02T00:26:21;9.11;71.86
67354;SHT30;54238;52.278;21.056;2024-03-02T00:28:48;9.09;71.91
67354;SHT30;54238;52.278;21.056;2024-03-02T00:31:20;9.07;72.01
67354;SHT30;54238;52.278;21.056;2024-03-02T00:33:50;9.06;71.99
67354;SHT30;54238;52.278;21.056;2024-03-02T00:36:24;9.04;72.03
67354;SHT30;54238;52.278;21.056;2024-03-02T00:38:57;9.04;72.06
67354;SHT30;54238;52.278;21.056;2024-03-02T00:41:29;9.02;72.09
67354;SHT30;54238;52.278;21.056;2024-03-02T00:43:59;8.98;72.16
67354;SHT30;54238;52.278;21.056;2024-03-02T00:46:42;8.94;72.24
67354;SHT30;54238;52.278;21.056;2024-03-02T00:49:18;8.92;72.30
67354;SHT30;54238;52.278;21.056;2024-03-02T00:51:51;8.92;72.28
67354;SHT30;54238;52.278;21.056;2024-03-02T00:54:21;8.90;72.38
67354;SHT30;54238;52.278;21.056;2024-03-02T00:56:54;8.89;72.38
67354;SHT30;54238;52.278;21.056;2024-03-02T00:59:27;8.88;72.39
67354;SHT30;54238;52.278;21.056;2024-03-02T01:01:54;8.86;72.48
67354;SHT30;54238;52.278;21.056;2024-03-02T01:04:21;8.84;72.46
67354;SHT30;54238;52.278;21.056;2024-03-02T01:06:48;8.82;72.50
67354;SHT30;54238;52.278;21.056;2024-03-02T01:09:15;8.81;72.52
67354;SHT30;54238;52.278;21.056;2024-03-02T01:11:44;8.81;72.58
67354;SHT30;54238;52.278;21.056;2024-03-02T01:14:11;8.80;72.59
67354;SHT30;54238;52.278;21.056;2024-03-02T01:16:38;8.77;72.60
67354;SHT30;54238;52.278;21.056;2024-03-02T01:19:10;8.76;72.63
67354;SHT30;54238;52.278;21.056;2024-03-02T01:21:39;8.74;72.71
67354;SHT30;54238;52.278;21.056;2024-03-02T01:24:10;8.72;72.77
67354;SHT30;54238;52.278;21.056;2024-03-02T01:26:39;8.69;72.81
67354;SHT30;54238;52.278;21.056;2024-03-02T01:29:07;8.69;72.81
67354;SHT30;54238;52.278;21.056;2024-03-02T01:31:38;8.67;72.80
67354;SHT30;54238;52.278;21.056;2024-03-02T01:34:08;8.66;72.89
67354;SHT30;54238;52.278;21.056;2024-03-02T01:36:35;8.64;72.90
67354;SHT30;54238;52.278;21.056;2024-03-02T01:39:02;8.62;72.92
67354;SHT30;54238;52.278;21.056;2024-03-02T01:41:30;8.60;73.00
67354;SHT30;54238;52.278;21.056;2024-03-02T01:43:56;8.58;73.06
67354;SHT30;54238;52.278;21.056;2024-03-02T01:46:23;8.55;73.14
67354;SHT30;54238;52.278;21.056;2024-03-02T01:48:53;8.52;73.20
67354;SHT30;54238;52.278;21.056;2024-03-02T01:51:24;8.51;73.23
67354;SHT30;54238;52.278;21.056;2024-03-02T01:53:52;8.49;73.30
67354;SHT30;54238;52.278;21.056;2024-03-02T01:56:22;8.49;73.30
67354;SHT30;54238;52.278;21.056;2024-03-02T01:58:49;8.49;73.42
67354;SHT30;54238;52.278;21.056;2024-03-02T02:01:18;8.48;73.36
67354;SHT30;54238;52.278;21.056;2024-03-02T02:03:45;8.47;73.41
67354;SHT30;54238;52.278;21.056;2024-03-02T02:06:12;8.46;73.44
67354;SHT30;54238;52.278;21.056;2024-03-02T02:08:44;8.45;73.43
67354;SHT30;54238;52.278;21.056;2024-03-02T02:11:19;8.44;73.50
67354;SHT30;54238;52.278;21.056;2024-03-02T02:13:48;8.43;73.50
67354;SHT30;54238;52.278;21.056;2024-03-02T02:16:22;8.42;73.59
67354;SHT30;54238;52.278;21.056;2024-03-02T02:18:49;8.41;73.60
67354;SHT30;54238;52.278;21.056;2024-03-02T02:21:22;8.39;73.71
67354;SHT30;54238;52.278;21.056;2024-03-02T02:23:52;8.36;73.71
67354;SHT30;54238;52.278;21.056;2024-03-02T02:26:22;8.32;73.81
67354;SHT30;54238;52.278;21.056;2024-03-02T02:28:50;8.30;73.90
67354;SHT30;54238;52.278;21.056;2024-03-02T02:31:17;8.28;73.95
67354;SHT30;54238;52.278;21.056;2024-03-02T02:33:46;8.27;73.98
67354;SHT30;54238;52.278;21.056;2024-03-02T02:36:15;8.27;74.01
67354;SHT30;54238;52.278;21.056;2024-03-02T02:38:45;8.26;74.05
67354;SHT30;54238;52.278;21.056;2024-03-02T02:41:15;8.26;74.07
67354;SHT30;54238;52.278;21.056;2024-03-02T02:43:42;8.25;74.09
67354;SHT30;54238;52.278;21.056;2024-03-02T02:46:14;8.25;74.10
67354;SHT30;54238;52.278;21.056;2024-03-02T02:48:41;8.23;74.11
67354;SHT30;54238;52.278;21.056;2024-03-02T02:51:10;8.22;74.11
67354;SHT30;54238;52.278;21.056;2024-03-02T02:53:39;8.21;74.18
67354;SHT30;54238;52.278;21.056;2024-03-02T02:56:09;8.17;74.24
67354;SHT30;54238;52.278;21.056;2024-03-02T02:58:36;8.15;74.36
67354;SHT30;54238;52.278;21.056;2024-03-02T03:01:06;8.13;74.41
67354;SHT30;54238;52.278;21.056;2024-03-02T03:03:38;8.10;74.45
67354;SHT30;54238;52.278;21.056;2024-03-02T03:06:07;8.09;74.50
67354;SHT30;54238;52.278;21.056;2024-03-02T03:08:40;8.06;74.57
67354;SHT30;54238;52.278;21.056;2024-03-02T03:11:07;8.05;74.60
67354;SHT30;54238;52.278;21.056;2024-03-02T03:13:39;8.03;74.73
67354;SHT30;54238;52.278;21.056;2024-03-02T03:16:08;8.00;74.83
67354;SHT30;54238;52.278;21.056;2024-03-02T03:18:38;7.98;74.90
67354;SHT30;54238;52.278;21.056;2024-03-02T03:21:05;7.97;74.87
67354;SHT30;54238;52.278;21.056;2024-03-02T03:23:34;7.96;74.90
67354;SHT30;54238;52.278;21.056;2024-03-02T03:26:03;7.95;74.90
67354;SHT30;54238;52.278;21.056;2024-03-02T03:28:31;7.94;74.90
67354;SHT30;54238;52.278;21.056;2024-03-02T03:31:03;7.93;74.96
67354;SHT30;54238;52.278;21.056;2024-03-02T03:33:32;7.90;75.02
67354;SHT30;54238;52.278;21.056;2024-03-02T03:36:04;7.88;75.06
67354;SHT30;54238;52.278;21.056;2024-03-02T03:38:34;7.86;75.15
67354;SHT30;54238;52.278;21.056;2024-03-02T03:41:05;7.85;75.21
67354;SHT30;54238;52.278;21.056;2024-03-02T03:43:32;7.83;75.28
67354;SHT30;54238;52.278;21.056;2024-03-02T03:45:59;7.81;75.32
67354;SHT30;54238;52.278;21.056;2024-03-02T03:48:28;7.82;75.31
67354;SHT30;54238;52.278;21.056;2024-03-02T03:50:57;7.82;75.32
67354;SHT30;54238;52.278;21.056;2024-03-02T03:53:24;7.82;75.36
67354;SHT30;54238;52.278;21.056;2024-03-02T03:55:51;7.81;75.39
67354;SHT30;54238;52.278;21.056;2024-03-02T03:58:21;7.81;75.38
67354;SHT30;54238;52.278;21.056;2024-03-02T04:00:52;7.80;75.40
67354;SHT30;54238;52.278;21.056;2024-03-02T04:03:19;7.79;75.42
67354;SHT30;54238;52.278;21.056;2024-03-02T04:05:46;7.77;75.42
67354;SHT30;54238;52.278;21.056;2024-03-02T04:08:16;7.77;75.46
67354;SHT30;54238;52.278;21.056;2024-03-02T04:10:46;7.76;75.47
67354;SHT30;54238;52.278;21.056;2024-03-02T04:13:33;7.74;75.46
67354;SHT30;54238;52.278;21.056;2024-03-02T04:16:22;7.73;75.54
67354;SHT30;54238;52.278;21.056;2024-03-02T04:19:17;7.70;75.61
67354;SHT30;54238;52.278;21.056;2024-03-02T04:21:49;7.70;75.72
67354;SHT30;54238;52.278;21.056;2024-03-02T04:24:16;7.68;75.77
67354;SHT30;54238;52.278;21.056;2024-03-02T04:26:43;7.67;75.74
67354;SHT30;54238;52.278;21.056;2024-03-02T04:29:12;7.65;75.77
67354;SHT30;54238;52.278;21.056;2024-03-02T04:31:41;7.66;75.87
67354;SHT30;54238;52.278;21.056;2024-03-02T04:34:10;7.68;75.84
67354;SHT30;54238;52.278;21.056;2024-03-02T04:36:42;7.68;75.84
67354;SHT30;54238;52.278;21.056;2024-03-02T04:39:11;7.70;75.90
67354;SHT30;54238;52.278;21.056;2024-03-02T04:41:38;7.71;75.83
67354;SHT30;54238;52.278;21.056;2024-03-02T04:44:05;7.72;75.80
67354;SHT30;54238;52.278;21.056;2024-03-02T04:46:42;7.69;75.79
67354;SHT30;54238;52.278;21.056;2024-03-02T04:49:09;7.70;75.78
67354;SHT30;54238;52.278;21.056;2024-03-02T04:51:38;7.67;75.77
67354;SHT30;54238;52.278;21.056;2024-03-02T04:54:07;7.67;75.90
67354;SHT30;54238;52.278;21.056;2024-03-02T04:56:34;7.69;75.88
67354;SHT30;54238;52.278;21.056;2024-03-02T04:59:28;7.69;75.89
67354;SHT30;54238;52.278;21.056;2024-03-02T05:01:55;7.70;75.82
67354;SHT30;54238;52.278;21.056;2024-03-02T05:04:25;7.71;75.80
67354;SHT30;54238;52.278;21.056;2024-03-02T05:06:52;7.69;75.80
67354;SHT30;54238;52.278;21.056;2024-03-02T05:09:23;7.69;75.80
67354;SHT30;54238;52.278;21.056;2024-03-02T05:11:52;7.69;75.80
67354;SHT30;54238;52.278;21.056;2024-03-02T05:14:40;7.69;75.82
67354;SHT30;54238;52.278;21.056;2024-03-02T05:17:10;7.69;75.84
67354;SHT30;54238;52.278;21.056;2024-03-02T05:19:39;7.69;75.85
67354;SHT30;54238;52.278;21.056;2024-03-02T05:22:11;7.68;75.91
67354;SHT30;54238;52.278;21.056;2024-03-02T05:24:40;7.69;75.95
67354;SHT30;54238;52.278;21.056;2024-03-02T05:27:07;7.71;75.90
67354;SHT30;54238;52.278;21.056;2024-03-02T05:29:36;7.73;75.87
67354;SHT30;54238;52.278;21.056;2024-03-02T05:32:08;7.72;75.88
67354;SHT30;54238;52.278;21.056;2024-03-02T05:34:35;7.74;75.87
67354;SHT30;54238;52.278;21.056;2024-03-02T05:37:02;7.75;75.82
67354;SHT30;54238;52.278;21.056;2024-03-02T05:39:29;7.73;75.86
67354;SHT30;54238;52.278;21.056;2024-03-02T05:41:56;7.74;75.90
67354;SHT30;54238;52.278;21.056;2024-03-02T05:44:23;7.74;75.91
67354;SHT30;54238;52.278;21.056;2024-03-02T05:46:52;7.76;75.90
67354;SHT30;54238;52.278;21.056;2024-03-02T05:49:24;7.78;75.90
67354;SHT30;54238;52.278;21.056;2024-03-02T05:51:56;7.79;75.85
67354;SHT30;54238;52.278;21.056;2024-03-02T05:54:26;7.79;75.87
67354;SHT30;54238;52.278;21.056;2024-03-02T05:56:58;7.81;75.83
67354;SHT30;54238;52.278;21.056;2024-03-02T05:59:43;7.82;75.84
67354;SHT30;54238;52.278;21.056;2024-03-02T06:02:12;7.84;75.80
67354;SHT30;54238;52.278;21.056;2024-03-02T06:04:44;7.85;75.76
67354;SHT30;54238;52.278;21.056;2024-03-02T06:07:11;7.86;75.80
67354;SHT30;54238;52.278;21.056;2024-03-02T06:09:41;7.86;75.81
67354;SHT30;54238;52.278;21.056;2024-03-02T06:12:08;7.87;75.80
67354;SHT30;54238;52.278;21.056;2024-03-02T06:14:38;7.88;75.83
67354;SHT30;54238;52.278;21.056;2024-03-02T06:17:15;7.91;75.80
67354;SHT30;54238;52.278;21.056;2024-03-02T06:19:44;7.94;75.71
67354;SHT30;54238;52.278;21.056;2024-03-02T06:22:11;7.97;75.70
67354;SHT30;54238;52.278;21.056;2024-03-02T06:24:43;7.99;75.64
67354;SHT30;54238;52.278;21.056;2024-03-02T06:27:14;8.02;75.58
67354;SHT30;54238;52.278;21.056;2024-03-02T06:29:42;8.05;75.52
67354;SHT30;54238;52.278;21.056;2024-03-02T06:32:12;8.07;75.48
67354;SHT30;54238;52.278;21.056;2024-03-02T06:34:41;8.12;75.42
67354;SHT30;54238;52.278;21.056;2024-03-02T06:37:13;8.16;75.38
67354;SHT30;54238;52.278;21.056;2024-03-02T06:39:40;8.20;75.29
67354;SHT30;54238;52.278;21.056;2024-03-02T06:42:10;8.22;75.20
67354;SHT30;54238;52.278;21.056;2024-03-02T06:44:37;8.24;75.17
67354;SHT30;54238;52.278;21.056;2024-03-02T06:47:06;8.27;75.07
67354;SHT30;54238;52.278;21.056;2024-03-02T06:49:33;8.26;74.98
67354;SHT30;54238;52.278;21.056;2024-03-02T06:52:02;8.29;75.01
67354;SHT30;54238;52.278;21.056;2024-03-02T06:54:31;8.31;75.00
67354;SHT30;54238;52.278;21.056;2024-03-02T06:57:03;8.34;74.93
67354;SHT30;54238;52.278;21.056;2024-03-02T06:59:32;8.35;74.87
67354;SHT30;54238;52.278;21.056;2024-03-02T07:02:00;8.39;74.81
67354;SHT30;54238;52.278;21.056;2024-03-02T07:04:28;8.42;74.80
67354;SHT30;54238;52.278;21.056;2024-03-02T07:06:59;8.43;74.68
67354;SHT30;54238;52.278;21.056;2024-03-02T07:09:29;8.47;74.69
67354;SHT30;54238;52.278;21.056;2024-03-02T07:12:02;8.50;74.54
67354;SHT30;54238;52.278;21.056;2024-03-02T07:14:34;8.53;74.50
67354;SHT30;54238;52.278;21.056;2024-03-02T07:17:38;8.56;74.50
67354;SHT30;54238;52.278;21.056;2024-03-02T07:20:05;8.60;74.39
67354;SHT30;54238;52.278;21.056;2024-03-02T07:22:35;8.63;74.28
67354;SHT30;54238;52.278;21.056;2024-03-02T07:25:04;8.65;74.21
67354;SHT30;54238;52.278;21.056;2024-03-02T07:27:35;8.70;74.21
67354;SHT30;54238;52.278;21.056;2024-03-02T07:30:05;8.74;74.10
67354;SHT30;54238;52.278;21.056;2024-03-02T07:32:33;8.79;73.97
67354;SHT30;54238;52.278;21.056;2024-03-02T07:35:00;8.79;73.85
67354;SHT30;54238;52.278;21.056;2024-03-02T07:37:31;8.79;73.80
67354;SHT30;54238;52.278;21.056;2024-03-02T07:40:00;8.81;73.80
67354;SHT30;54238;52.278;21.056;2024-03-02T07:42:30;8.85;73.67
67354;SHT30;54238;52.278;21.056;2024-03-02T07:45:02;8.85;73.55
67354;SHT30;54238;52.278;21.056;2024-03-02T07:47:35;8.87;73.68
67354;SHT30;54238;52.278;21.056;2024-03-02T07:50:05;8.89;73.69
67354;SHT30;54238;52.278;21.056;2024-03-02T07:52:36;8.93;73.68
67354;SHT30;54238;52.278;21.056;2024-03-02T07:55:03;8.97;73.68
67354;SHT30;54238;52.278;21.056;2024-03-02T07:57:32;9.03;73.61
67354;SHT30;54238;52.278;21.056;2024-03-02T08:00:02;9.06;73.52
67354;SHT30;54238;52.278;21.056;2024-03-02T08:02:33;9.11;73.39
67354;SHT30;54238;52.278;21.056;2024-03-02T08:05:01;9.15;73.30
67354;SHT30;54238;52.278;21.056;2024-03-02T08:07:30;9.23;73.11
67354;SHT30;54238;52.278;21.056;2024-03-02T08:09:57;9.30;73.00
67354;SHT30;54238;52.278;21.056;2024-03-02T08:12:27;9.35;72.87
67354;SHT30;54238;52.278;21.056;2024-03-02T08:14:56;9.40;72.63
67354;SHT30;54238;52.278;21.056;2024-03-02T08:17:26;9.45;72.64
67354;SHT30;54238;52.278;21.056;2024-03-02T08:19:53;9.48;72.36
67354;SHT30;54238;52.278;21.056;2024-03-02T08:22:20;9.52;72.26
67354;SHT30;54238;52.278;21.056;2024-03-02T08:24:48;9.57;72.20
67354;SHT30;54238;52.278;21.056;2024-03-02T08:27:22;9.62;72.26
67354;SHT30;54238;52.278;21.056;2024-03-02T08:29:49;9.71;72.47
67354;SHT30;54238;52.278;21.056;2024-03-02T08:32:16;9.81;72.23
67354;SHT30;54238;52.278;21.056;2024-03-02T08:34:48;9.90;72.04
67354;SHT30;54238;52.278;21.056;2024-03-02T08:37:15;9.96;71.51
67354;SHT30;54238;52.278;21.056;2024-03-02T08:39:44;10.00;71.31
67354;SHT30;54238;52.278;21.056;2024-03-02T08:42:16;10.03;71.25
67354;SHT30;54238;52.278;21.056;2024-03-02T08:44:49;10.11;71.28
67354;SHT30;54238;52.278;21.056;2024-03-02T08:47:18;10.15;70.64
67354;SHT30;54238;52.278;21.056;2024-03-02T08:49:45;10.15;70.58
67354;SHT30;54238;52.278;21.056;2024-03-02T08:52:17;10.18;70.38
67354;SHT30;54238;52.278;21.056;2024-03-02T08:54:46;10.20;70.21
67354;SHT30;54238;52.278;21.056;2024-03-02T08:57:18;10.20;70.17
67354;SHT30;54238;52.278;21.056;2024-03-02T08:59:45;10.23;70.21
67354;SHT30;54238;52.278;21.056;2024-03-02T09:02:19;10.31;70.27
67354;SHT30;54238;52.278;21.056;2024-03-02T09:04:51;10.38;70.01
67354;SHT30;54238;52.278;21.056;2024-03-02T09:07:21;10.40;69.63
67354;SHT30;54238;52.278;21.056;2024-03-02T09:09:50;10.39;69.60
67354;SHT30;54238;52.278;21.056;2024-03-02T09:12:20;10.39;69.60
67354;SHT30;54238;52.278;21.056;2024-03-02T09:14:52;10.39;69.58
67354;SHT30;54238;52.278;21.056;2024-03-02T09:17:23;10.39;69.61
67354;SHT30;54238;52.278;21.056;2024-03-02T09:19:53;10.40;69.65
67354;SHT30;54238;52.278;21.056;2024-03-02T09:22:22;10.41;69.52
67354;SHT30;54238;52.278;21.056;2024-03-02T09:24:52;10.42;69.41
67354;SHT30;54238;52.278;21.056;2024-03-02T09:27:18;10.43;69.48
67354;SHT30;54238;52.278;21.056;2024-03-02T09:29:49;10.47;69.56
67354;SHT30;54238;52.278;21.056;2024-03-02T09:32:18;10.52;69.27
67354;SHT30;54238;52.278;21.056;2024-03-02T09:34:50;10.55;69.15
67354;SHT30;54238;52.278;21.056;2024-03-02T09:37:24;10.56;69.03
67354;SHT30;54238;52.278;21.056;2024-03-02T09:39:54;10.57;68.87
67354;SHT30;54238;52.278;21.056;2024-03-02T09:42:23;10.56;68.77
67354;SHT30;54238;52.278;21.056;2024-03-02T09:44:53;10.56;68.84
67354;SHT30;54238;52.278;21.056;2024-03-02T09:47:20;10.57;68.72
67354;SHT30;54238;52.278;21.056;2024-03-02T09:49:54;10.60;68.66
67354;SHT30;54238;52.278;21.056;2024-03-02T09:52:24;10.61;68.60
67354;SHT30;54238;52.278;21.056;2024-03-02T09:54:51;10.63;68.40
67354;SHT30;54238;52.278;21.056;2024-03-02T09:57:18;10.65;68.41
67354;SHT30;54238;52.278;21.056;2024-03-02T09:59:49;10.69;68.36
67354;SHT30;54238;52.278;21.056;2024-03-02T10:02:18;10.73;68.35
67354;SHT30;54238;52.278;21.056;2024-03-02T10:04:50;10.80;68.34
67354;SHT30;54238;52.278;21.056;2024-03-02T10:07:19;10.91;68.38
67354;SHT30;54238;52.278;21.056;2024-03-02T10:09:47;11.00;68.35
67354;SHT30;54238;52.278;21.056;2024-03-02T10:12:16;11.07;67.96
67354;SHT30;54238;52.278;21.056;2024-03-02T10:14:45;11.12;67.70
67354;SHT30;54238;52.278;21.056;2024-03-02T10:17:16;11.17;67.70
67354;SHT30;54238;52.278;21.056;2024-03-02T10:19:47;11.24;67.58
67354;SHT30;54238;52.278;21.056;2024-03-02T10:22:14;11.32;67.32
67354;SHT30;54238;52.278;21.056;2024-03-02T10:24:44;11.38;66.95
67354;SHT30;54238;52.278;21.056;2024-03-02T10:27:18;11.42;66.86
67354;SHT30;54238;52.278;21.056;2024-03-02T10:29:52;11.45;66.88
67354;SHT30;54238;52.278;21.056;2024-03-02T10:32:20;11.53;66.94
67354;SHT30;54238;52.278;21.056;2024-03-02T10:34:51;11.64;66.94
67354;SHT30;54238;52.278;21.056;2024-03-02T10:37:21;11.74;66.51
67354;SHT30;54238;52.278;21.056;2024-03-02T10:39:53;11.84;66.38
67354;SHT30;54238;52.278;21.056;2024-03-02T10:42:24;11.96;66.22
67354;SHT30;54238;52.278;21.056;2024-03-02T10:44:54;12.08;66.08
67354;SHT30;54238;52.278;21.056;2024-03-02T10:47:21;12.22;65.80
67354;SHT30;54238;52.278;21.056;2024-03-02T10:49:54;12.36;65.23
67354;SHT30;54238;52.278;21.056;2024-03-02T10:52:29;12.47;64.91
67354;SHT30;54238;52.278;21.056;2024-03-02T10:54:58;12.58;64.57
67354;SHT30;54238;52.278;21.056;2024-03-02T10:57:28;12.68;64.23
67354;SHT30;54238;52.278;21.056;2024-03-02T11:00:26;12.75;63.40
67354;SHT30;54238;52.278;21.056;2024-03-02T11:03:07;12.73;63.26
67354;SHT30;54238;52.278;21.056;2024-03-02T11:05:36;12.74;63.30
67354;SHT30;54238;52.278;21.056;2024-03-02T11:08:13;12.75;63.34
67354;SHT30;54238;52.278;21.056;2024-03-02T11:10:50;12.76;63.23
67354;SHT30;54238;52.278;21.056;2024-03-02T11:13:30;12.73;63.22
67354;SHT30;54238;52.278;21.056;2024-03-02T11:16:03;12.75;63.29
67354;SHT30;54238;52.278;21.056;2024-03-02T11:18:41;12.76;63.25
67354;SHT30;54238;52.278;21.056;2024-03-02T11:21:09;12.78;63.10
67354;SHT30;54238;52.278;21.056;2024-03-02T11:23:42;12.83;63.25
67354;SHT30;54238;52.278;21.056;2024-03-02T11:26:20;12.88;62.83
67354;SHT30;54238;52.278;21.056;2024-03-02T11:28:55;12.90;62.70
67354;SHT30;54238;52.278;21.056;2024-03-02T11:31:23;12.95;62.58
67354;SHT30;54238;52.278;21.056;2024-03-02T11:34:35;13.04;62.38
67354;SHT30;54238;52.278;21.056;2024-03-02T11:37:06;13.15;62.57
67354;SHT30;54238;52.278;21.056;2024-03-02T11:39:33;13.25;62.29
67354;SHT30;54238;52.278;21.056;2024-03-02T11:42:10;13.35;61.89
67354;SHT30;54238;52.278;21.056;2024-03-02T11:44:42;13.40;61.75
67354;SHT30;54238;52.278;21.056;2024-03-02T11:47:13;13.46;61.76
67354;SHT30;54238;52.278;21.056;2024-03-02T11:49:48;13.53;61.29
67354;SHT30;54238;52.278;21.056;2024-03-02T11:52:21;13.56;61.31
67354;SHT30;54238;52.278;21.056;2024-03-02T11:54:49;13.62;61.35
67354;SHT30;54238;52.278;21.056;2024-03-02T11:57:21;13.67;61.28
67354;SHT30;54238;52.278;21.056;2024-03-02T11:59:56;13.72;61.11
67354;SHT30;54238;52.278;21.056;2024-03-02T12:02:28;13.75;60.93
67354;SHT30;54238;52.278;21.056;2024-03-02T12:04:58;13.76;60.82
67354;SHT30;54238;52.278;21.056;2024-03-02T12:07:34;13.79;60.93
67354;SHT30;54238;52.278;21.056;2024-03-02T12:10:03;13.84;60.76
67354;SHT30;54238;52.278;21.056;2024-03-02T12:12:34;13.89;60.62
67354;SHT30;54238;52.278;21.056;2024-03-02T12:15:04;13.94;60.43
67354;SHT30;54238;52.278;21.056;2024-03-02T12:17:33;14.04;60.43
67354;SHT30;54238;52.278;21.056;2024-03-02T12:20:02;14.17;60.10
67354;SHT30;54238;52.278;21.056;2024-03-02T12:22:34;14.27;59.78
67354;SHT30;54238;52.278;21.056;2024-03-02T12:25:04;14.37;59.52
67354;SHT30;54238;52.278;21.056;2024-03-02T12:27:34;14.47;59.37
67354;SHT30;54238;52.278;21.056;2024-03-02T12:30:04;14.58;58.88
67354;SHT30;54238;52.278;21.056;2024-03-02T12:32:40;14.63;58.53
67354;SHT30;54238;52.278;21.056;2024-03-02T12:35:10;14.66;58.38
67354;SHT30;54238;52.278;21.056;2024-03-02T12:40:19;14.66;58.49
67354;SHT30;54238;52.278;21.056;2024-03-02T12:42:49;14.68;58.51
67354;SHT30;54238;52.278;21.056;2024-03-02T12:45:21;14.67;58.41
67354;SHT30;54238;52.278;21.056;2024-03-02T12:47:52;14.67;58.42
67354;SHT30;54238;52.278;21.056;2024-03-02T12:50:23;14.64;58.35
67354;SHT30;54238;52.278;21.056;2024-03-02T12:52:51;14.60;58.57
67354;SHT30;54238;52.278;21.056;2024-03-02T12:55:26;14.55;58.62
67354;SHT30;54238;52.278;21.056;2024-03-02T12:57:56;14.51;58.49
67354;SHT30;54238;52.278;21.056;2024-03-02T13:00:26;14.49;58.62
67354;SHT30;54238;52.278;21.056;2024-03-02T13:02:59;14.45;58.61
67354;SHT30;54238;52.278;21.056;2024-03-02T13:05:32;14.39;58.78
67354;SHT30;54238;52.278;21.056;2024-03-02T13:08:02;14.30;58.89
67354;SHT30;54238;52.278;21.056;2024-03-02T13:10:33;14.25;59.21
67354;SHT30;54238;52.278;21.056;2024-03-02T13:13:00;14.24;59.00
67354;SHT30;54238;52.278;21.056;2024-03-02T13:15:30;14.20;59.29
67354;SHT30;54238;52.278;21.056;2024-03-02T13:18:02;14.21;59.33
67354;SHT30;54238;52.278;21.056;2024-03-02T13:20:31;14.16;59.24
67354;SHT30;54238;52.278;21.056;2024-03-02T13:22:58;14.11;59.39
67354;SHT30;54238;52.278;21.056;2024-03-02T13:25:25;14.04;59.55
67354;SHT30;54238;52.278;21.056;2024-03-02T13:27:55;14.02;59.43
67354;SHT30;54238;52.278;21.056;2024-03-02T13:30:22;14.00;59.46
67354;SHT30;54238;52.278;21.056;2024-03-02T13:32:49;13.99;59.44
67354;SHT30;54238;52.278;21.056;2024-03-02T13:35:15;13.94;59.34
67354;SHT30;54238;52.278;21.056;2024-03-02T13:37:45;13.85;59.47
67354;SHT30;54238;52.278;21.056;2024-03-02T13:40:14;13.80;59.50
67354;SHT30;54238;52.278;21.056;2024-03-02T13:42:46;13.73;59.58
67354;SHT30;54238;52.278;21.056;2024-03-02T13:45:17;13.65;59.70
67354;SHT30;54238;52.278;21.056;2024-03-02T13:47:46;13.55;59.88
67354;SHT30;54238;52.278;21.056;2024-03-02T13:50:13;13.46;59.92
67354;SHT30;54238;52.278;21.056;2024-03-02T13:52:47;13.38;60.23
67354;SHT30;54238;52.278;21.056;2024-03-02T13:55:19;13.28;60.39
67354;SHT30;54238;52.278;21.056;2024-03-02T13:57:49;13.20;60.72
67354;SHT30;54238;52.278;21.056;2024-03-02T14:00:18;13.14;60.88
67354;SHT30;54238;52.278;21.056;2024-03-02T14:02:46;13.06;60.96
67354;SHT30;54238;52.278;21.056;2024-03-02T14:05:16;13.01;61.22
67354;SHT30;54238;52.278;21.056;2024-03-02T14:07:43;12.97;61.42
67354;SHT30;54238;52.278;21.056;2024-03-02T14:10:11;12.90;61.48
67354;SHT30;54238;52.278;21.056;2024-03-02T14:12:43;12.85;61.62
67354;SHT30;54238;52.278;21.056;2024-03-02T14:15:12;12.81;61.70
67354;SHT30;54238;52.278;21.056;2024-03-02T14:17:39;12.76;61.89
67354;SHT30;54238;52.278;21.056;2024-03-02T14:20:06;12.71;62.02
67354;SHT30;54238;52.278;21.056;2024-03-02T14:22:40;12.65;62.12
67354;SHT30;54238;52.278;21.056;2024-03-02T14:25:07;12.57;62.33
67354;SHT30;54238;52.278;21.056;2024-03-02T14:27:35;12.53;62.61
67354;SHT30;54238;52.278;21.056;2024-03-02T14:30:04;12.50;62.73
67354;SHT30;54238;52.278;21.056;2024-03-02T14:32:35;12.47;62.82
67354;SHT30;54238;52.278;21.056;2024-03-02T14:35:01;12.45;62.96
67354;SHT30;54238;52.278;21.056;2024-03-02T14:37:31;12.43;63.00
67354;SHT30;54238;52.278;21.056;2024-03-02T14:40:00;12.41;62.89
67354;SHT30;54238;52.278;21.056;2024-03-02T14:42:28;12.35;62.81
67354;SHT30;54238;52.278;21.056;2024-03-02T14:44:58;12.31;62.85
67354;SHT30;54238;52.278;21.056;2024-03-02T14:47:29;12.22;62.91
67354;SHT30;54238;52.278;21.056;2024-03-02T14:50:01;12.11;63.11
67354;SHT30;54238;52.278;21.056;2024-03-02T14:52:37;12.05;63.29
67354;SHT30;54238;52.278;21.056;2024-03-02T14:55:05;11.98;63.51
67354;SHT30;54238;52.278;21.056;2024-03-02T14:57:34;11.90;63.76
67354;SHT30;54238;52.278;21.056;2024-03-02T15:00:01;11.85;63.96
67354;SHT30;54238;52.278;21.056;2024-03-02T15:02:36;11.79;64.09
67354;SHT30;54238;52.278;21.056;2024-03-02T15:05:07;11.73;64.26
67354;SHT30;54238;52.278;21.056;2024-03-02T15:07:34;11.70;64.57
67354;SHT30;54238;52.278;21.056;2024-03-02T15:10:04;11.68;64.62
67354;SHT30;54238;52.278;21.056;2024-03-02T15:12:36;11.68;64.74
67354;SHT30;54238;52.278;21.056;2024-03-02T15:15:04;11.67;64.82
67354;SHT30;54238;52.278;21.056;2024-03-02T15:17:31;11.65;64.89
67354;SHT30;54238;52.278;21.056;2024-03-02T15:20:01;11.65;64.95
67354;SHT30;54238;52.278;21.056;2024-03-02T15:22:34;11.63;65.07
67354;SHT30;54238;52.278;21.056;2024-03-02T15:25:03;11.59;65.11
67354;SHT30;54238;52.278;21.056;2024-03-02T15:27:33;11.56;65.21
67354;SHT30;54238;52.278;21.056;2024-03-02T15:30:05;11.52;65.35
67354;SHT30;54238;52.278;21.056;2024-03-02T15:32:38;11.47;65.45
67354;SHT30;54238;52.278;21.056;2024-03-02T15:35:07;11.44;65.52
67354;SHT30;54238;52.278;21.056;2024-03-02T15:37:37;11.41;65.60
67354;SHT30;54238;52.278;21.056;2024-03-02T15:40:04;11.39;65.67
67354;SHT30;54238;52.278;21.056;2024-03-02T15:42:33;11.33;65.80
67354;SHT30;54238;52.278;21.056;2024-03-02T15:45:04;11.28;65.93
67354;SHT30;54238;52.278;21.056;2024-03-02T15:47:34;11.26;66.10